Time;durP1;ratioP1;P1;durP2;ratioP2;P2;SDS_P1;SDS_P2;PMS_P1;PMS_P2;Temp;Humidity;BMP_temperature;BMP_pressure;BME280_temperature;BME280_humidity;BME280_pressure;Samples;Min_cycle;Max_cycle;Signal;HPM_P1;HPM_P2
2023/07/04 00:00:37;;;;;;;;;;;13.40;64.20;;;;;;4061888;29;19919;-85
2023/07/04 00:02:45;;;;;;;;;;;13.30;64.10;;;;;;4049097;29;19986;-78
2023/07/04 00:04:48;;;;;;;;;;;13.30;64.30;;;;;;4063250;29;20308;-83
2023/07/04 00:07:08;;;;;;;;;;;13.30;64.50;;;;;;4057709;29;19915;-80
2023/07/04 00:09:29;;;;;;;;;;;13.30;65.00;;;;;;4062338;29;20280;-82
2023/07/04 00:11:44;;;;;;;;;;;13.20;65.80;;;;;;4066669;29;19919;-81
2023/07/04 00:13:51;;;;;;;;;;;13.10;65.50;;;;;;4064972;29;19922;-82
2023/07/04 00:16:15;;;;;;;;;;;13.20;66.10;;;;;;4061657;29;19971;-83
2023/07/04 00:18:20;;;;;;;;;;;13.20;65.70;;;;;;4031301;29;19915;-85
2023/07/04 00:20:44;;;;;;;;;;;13.10;66.50;;;;;;4060492;29;20378;-83
2023/07/04 00:23:07;;;;;;;;;;;13.00;67.20;;;;;;4061845;29;20018;-84
2023/07/04 00:25:31;;;;;;;;;;;13.00;67.20;;;;;;4060547;29;19916;-84
2023/07/04 00:27:52;;;;;;;;;;;12.90;68.50;;;;;;4060896;29;20303;-83
2023/07/04 00:30:13;;;;;;;;;;;12.90;69.20;;;;;;4064805;29;20303;-84
2023/07/04 00:32:33;;;;;;;;;;;12.90;68.70;;;;;;4046280;29;20368;-82
2023/07/04 00:34:54;;;;;;;;;;;12.90;69.30;;;;;;4051276;29;20332;-83
2023/07/04 00:37:21;;;;;;;;;;;12.90;70.00;;;;;;4065268;29;20107;-83
2023/07/04 00:39:22;;;;;;;;;;;12.80;70.00;;;;;;4065596;29;20065;-83
2023/07/04 00:41:24;;;;;;;;;;;12.80;70.60;;;;;;4049709;29;19919;-81
2023/07/04 00:43:46;;;;;;;;;;;12.80;70.90;;;;;;4063816;29;19927;-81
2023/07/04 00:46:07;;;;;;;;;;;12.80;71.00;;;;;;4063006;29;19920;-82
2023/07/04 00:48:09;;;;;;;;;;;12.70;70.30;;;;;;4064711;29;20336;-83
2023/07/04 00:50:13;;;;;;;;;;;12.60;69.80;;;;;;4063208;29;19922;-82
2023/07/04 00:52:15;;;;;;;;;;;12.60;69.60;;;;;;4047570;29;19943;-83
2023/07/04 00:54:17;;;;;;;;;;;12.60;69.30;;;;;;4062148;29;20057;-83
2023/07/04 00:56:17;;;;;;;;;;;12.50;69.20;;;;;;4043140;29;19922;-83
2023/07/04 00:58:19;;;;;;;;;;;12.50;69.30;;;;;;4044801;29;19916;-82
2023/07/04 01:00:38;;;;;;;;;;;12.40;69.20;;;;;;4051128;29;19911;-83
2023/07/04 01:03:00;;;;;;;;;;;12.50;69.10;;;;;;4064748;29;20339;-82
2023/07/04 01:05:25;;;;;;;;;;;12.30;69.20;;;;;;4066941;29;20524;-83
2023/07/04 01:07:50;;;;;;;;;;;12.40;69.10;;;;;;4065726;29;20137;-83
2023/07/04 01:10:14;;;;;;;;;;;12.30;69.00;;;;;;4050602;29;20327;-83
2023/07/04 01:12:34;;;;;;;;;;;12.20;69.50;;;;;;4068144;29;20855;-82
2023/07/04 01:14:53;;;;;;;;;;;12.20;70.40;;;;;;4048000;29;19915;-83
2023/07/04 01:17:20;;;;;;;;;;;12.10;69.80;;;;;;4068114;29;20014;-82
2023/07/04 01:19:41;;;;;;;;;;;12.10;69.40;;;;;;4064144;29;19938;-81
2023/07/04 01:22:14;;;;;;;;;;;12.10;69.50;;;;;;4049646;29;19915;-84
2023/07/04 01:24:40;;;;;;;;;;;12.00;69.50;;;;;;4063509;29;20303;-83
2023/07/04 01:27:01;;;;;;;;;;;12.00;69.40;;;;;;4063807;29;20400;-83
2023/07/04 01:29:22;;;;;;;;;;;12.00;69.40;;;;;;4066759;29;20307;-83
2023/07/04 01:31:43;;;;;;;;;;;12.00;69.60;;;;;;4067991;29;19950;-82
2023/07/04 01:34:05;;;;;;;;;;;12.00;69.70;;;;;;4068810;29;19919;-84
2023/07/04 01:36:27;;;;;;;;;;;12.00;69.90;;;;;;4052947;29;19935;-81
2023/07/04 01:38:48;;;;;;;;;;;11.90;70.10;;;;;;4064203;29;19923;-84
2023/07/04 01:41:09;;;;;;;;;;;11.90;70.00;;;;;;4025373;29;20047;-84
2023/07/04 01:43:29;;;;;;;;;;;11.90;70.00;;;;;;4053201;29;20000;-83
2023/07/04 01:45:50;;;;;;;;;;;11.80;70.10;;;;;;4066654;29;19919;-84
2023/07/04 01:48:10;;;;;;;;;;;11.80;70.50;;;;;;4068467;29;19982;-82
2023/07/04 01:50:31;;;;;;;;;;;11.80;70.70;;;;;;4065181;29;19916;-82
2023/07/04 01:52:52;;;;;;;;;;;11.90;71.20;;;;;;4062992;29;20012;-83
2023/07/04 01:55:13;;;;;;;;;;;11.90;71.30;;;;;;4050108;29;19942;-83
2023/07/04 01:57:34;;;;;;;;;;;11.90;71.40;;;;;;4062257;29;20104;-83
2023/07/04 01:59:57;;;;;;;;;;;11.90;71.30;;;;;;4062287;29;19922;-83
2023/07/04 02:02:18;;;;;;;;;;;11.90;71.90;;;;;;4058705;29;19950;-82
2023/07/04 02:04:39;;;;;;;;;;;11.90;71.80;;;;;;4059126;29;20849;-82
2023/07/04 02:07:00;;;;;;;;;;;11.90;72.50;;;;;;4061934;29;19978;-83
2023/07/04 02:09:20;;;;;;;;;;;12.00;72.70;;;;;;4061880;29;20291;-82
2023/07/04 02:11:41;;;;;;;;;;;11.90;72.90;;;;;;4058158;29;19923;-82
2023/07/04 02:14:05;;;;;;;;;;;11.90;72.70;;;;;;4058213;29;19965;-82
2023/07/04 02:16:26;;;;;;;;;;;11.90;72.90;;;;;;4063365;29;19982;-82
2023/07/04 02:18:47;;;;;;;;;;;12.00;73.30;;;;;;4046862;29;19920;-83
2023/07/04 02:21:30;;;;;;;;;;;11.90;73.00;;;;;;4046633;29;19947;-82
2023/07/04 02:24:25;;;;;;;;;;;11.90;72.90;;;;;;4059466;29;19926;-82
2023/07/04 02:27:00;;;;;;;;;;;11.90;72.50;;;;;;4050978;29;19982;-82
2023/07/04 02:29:21;;;;;;;;;;;11.90;72.50;;;;;;4045057;29;19939;-81
2023/07/04 02:31:44;;;;;;;;;;;11.90;72.90;;;;;;4049377;29;19992;-81
2023/07/04 02:34:05;;;;;;;;;;;11.80;72.70;;;;;;4050024;29;20057;-83
2023/07/04 02:36:26;;;;;;;;;;;11.90;72.90;;;;;;4057642;29;19937;-83
2023/07/04 02:38:27;;;;;;;;;;;11.70;72.80;;;;;;4063837;29;19919;-82
2023/07/04 02:40:31;;;;;;;;;;;11.80;72.90;;;;;;4063507;29;19982;-82
2023/07/04 02:42:31;;;;;;;;;;;11.80;72.70;;;;;;4061759;29;19971;-82
2023/07/04 02:44:33;;;;;;;;;;;11.80;73.30;;;;;;4043620;29;19968;-83
2023/07/04 02:46:33;;;;;;;;;;;11.80;73.10;;;;;;4063367;29;19919;-82
2023/07/04 02:48:34;;;;;;;;;;;11.80;73.10;;;;;;4046824;29;20390;-81
2023/07/04 02:50:34;;;;;;;;;;;11.70;73.00;;;;;;4044415;29;19919;-82
2023/07/04 02:52:35;;;;;;;;;;;11.80;72.90;;;;;;4064866;29;19926;-82
2023/07/04 02:54:38;;;;;;;;;;;11.70;73.10;;;;;;4044307;29;20404;-81
2023/07/04 02:56:39;;;;;;;;;;;11.70;73.70;;;;;;4062025;29;20340;-82
2023/07/04 02:58:39;;;;;;;;;;;11.70;73.90;;;;;;4047451;29;19919;-82
2023/07/04 03:00:41;;;;;;;;;;;11.70;73.70;;;;;;4058925;29;20180;-83
2023/07/04 03:02:44;;;;;;;;;;;11.70;73.80;;;;;;4059876;29;19934;-82
2023/07/04 03:04:47;;;;;;;;;;;11.70;73.70;;;;;;4046090;29;20034;-82
2023/07/04 03:06:48;;;;;;;;;;;11.60;73.70;;;;;;4060991;29;19930;-82
2023/07/04 03:08:48;;;;;;;;;;;11.60;74.00;;;;;;4064022;29;19959;-82
2023/07/04 03:10:49;;;;;;;;;;;11.60;74.00;;;;;;4060068;29;19923;-83
2023/07/04 03:12:50;;;;;;;;;;;11.60;73.90;;;;;;4062377;29;19923;-83
2023/07/04 03:14:50;;;;;;;;;;;11.60;74.10;;;;;;4046948;29;19919;-82
2023/07/04 03:16:51;;;;;;;;;;;11.70;73.80;;;;;;4066456;29;19930;-83
2023/07/04 03:18:52;;;;;;;;;;;11.60;73.80;;;;;;4068401;29;20002;-84
2023/07/04 03:20:52;;;;;;;;;;;11.70;73.50;;;;;;4064811;29;19929;-82
2023/07/04 03:22:53;;;;;;;;;;;11.60;73.90;;;;;;4049618;29;19923;-83
2023/07/04 03:24:53;;;;;;;;;;;11.80;74.80;;;;;;4050166;29;20106;-83
2023/07/04 03:26:54;;;;;;;;;;;11.70;74.90;;;;;;4065289;29;20074;-83
2023/07/04 03:28:55;;;;;;;;;;;11.70;74.80;;;;;;4065818;29;19919;-82
2023/07/04 03:30:55;;;;;;;;;;;11.70;74.90;;;;;;4049483;29;20018;-83
2023/07/04 03:32:56;;;;;;;;;;;11.80;75.40;;;;;;4060335;29;19922;-82
2023/07/04 03:35:01;;;;;;;;;;;11.70;75.50;;;;;;4063891;29;19919;-83
2023/07/04 03:37:01;;;;;;;;;;;11.80;75.50;;;;;;4060001;29;19919;-82
2023/07/04 03:39:03;;;;;;;;;;;11.80;75.20;;;;;;4065260;29;19915;-81
2023/07/04 03:41:04;;;;;;;;;;;11.70;74.80;;;;;;4062797;29;19919;-81
2023/07/04 03:43:04;;;;;;;;;;;11.70;75.00;;;;;;4049004;29;19971;-81
2023/07/04 03:45:06;;;;;;;;;;;11.80;75.00;;;;;;4061138;29;20094;-81
2023/07/04 03:47:06;;;;;;;;;;;11.70;74.90;;;;;;4065979;29;19911;-81
2023/07/04 03:49:07;;;;;;;;;;;11.80;75.20;;;;;;4066475;29;20396;-81
2023/07/04 03:51:10;;;;;;;;;;;11.80;75.40;;;;;;4049290;29;19922;-80
2023/07/04 03:53:11;;;;;;;;;;;11.80;75.30;;;;;;4059547;29;19922;-81
2023/07/04 03:55:11;;;;;;;;;;;11.70;75.20;;;;;;4045836;29;20340;-81
2023/07/04 03:57:12;;;;;;;;;;;11.80;75.40;;;;;;4066050;29;19915;-82
2023/07/04 03:59:12;;;;;;;;;;;11.70;75.20;;;;;;4065504;29;20018;-83
2023/07/04 04:01:13;;;;;;;;;;;11.80;75.20;;;;;;4065879;29;19915;-82
2023/07/04 04:03:14;;;;;;;;;;;11.90;75.50;;;;;;4062125;29;20048;-81
2023/07/04 04:05:14;;;;;;;;;;;11.80;75.80;;;;;;4066110;29;19918;-82
2023/07/04 04:07:16;;;;;;;;;;;11.80;75.40;;;;;;4046913;29;19923;-82
2023/07/04 04:09:17;;;;;;;;;;;11.90;75.20;;;;;;4062254;29;20382;-82
2023/07/04 04:11:17;;;;;;;;;;;11.90;75.80;;;;;;4057607;29;19942;-80
2023/07/04 04:13:18;;;;;;;;;;;12.00;75.80;;;;;;4044915;29;20042;-81
2023/07/04 04:15:18;;;;;;;;;;;11.90;75.60;;;;;;4059885;29;20051;-81
2023/07/04 04:17:19;;;;;;;;;;;12.00;76.60;;;;;;4059879;29;19919;-83
2023/07/04 04:19:20;;;;;;;;;;;12.10;77.20;;;;;;4039698;29;20006;-82
2023/07/04 04:21:20;;;;;;;;;;;12.20;77.60;;;;;;4062943;29;19923;-82
2023/07/04 04:23:21;;;;;;;;;;;12.20;77.20;;;;;;4063841;29;20235;-81
2023/07/04 04:25:22;;;;;;;;;;;12.30;78.00;;;;;;4058778;29;20530;-82
2023/07/04 04:27:26;;;;;;;;;;;12.30;77.60;;;;;;4063652;29;19919;-82
2023/07/04 04:29:28;;;;;;;;;;;12.30;77.50;;;;;;4057292;29;19958;-81
2023/07/04 04:31:29;;;;;;;;;;;12.30;76.90;;;;;;4044403;29;20450;-82
2023/07/04 04:33:29;;;;;;;;;;;12.40;76.90;;;;;;4061257;29;20735;-81
2023/07/04 04:35:33;;;;;;;;;;;12.40;75.80;;;;;;4045706;29;20014;-81
2023/07/04 04:37:34;;;;;;;;;;;12.40;76.00;;;;;;4046198;29;19926;-82
2023/07/04 04:39:36;;;;;;;;;;;12.40;75.60;;;;;;4045029;29;19924;-81
2023/07/04 04:41:40;;;;;;;;;;;12.50;75.70;;;;;;4047693;29;20400;-81
2023/07/04 04:43:41;;;;;;;;;;;12.40;75.20;;;;;;4041557;29;20757;-81
2023/07/04 04:45:43;;;;;;;;;;;12.40;75.20;;;;;;4059638;29;19922;-81
2023/07/04 04:47:48;;;;;;;;;;;12.40;75.10;;;;;;4059000;29;19923;-82
2023/07/04 04:49:52;;;;;;;;;;;12.40;75.30;;;;;;4044662;29;20574;-83
2023/07/04 04:51:53;;;;;;;;;;;12.40;75.60;;;;;;4044726;29;20456;-83
2023/07/04 04:53:53;;;;;;;;;;;12.40;75.20;;;;;;4064134;29;19919;-82
2023/07/04 04:55:54;;;;;;;;;;;12.50;75.60;;;;;;4044841;29;19923;-81
2023/07/04 04:57:55;;;;;;;;;;;12.50;75.80;;;;;;4060844;29;19963;-81
2023/07/04 05:00:02;;;;;;;;;;;12.50;76.10;;;;;;4060613;29;19926;-82
2023/07/04 05:02:03;;;;;;;;;;;12.50;76.40;;;;;;4047090;29;20277;-80
2023/07/04 05:04:03;;;;;;;;;;;12.50;76.50;;;;;;4043193;29;20564;-80
2023/07/04 05:06:05;;;;;;;;;;;12.50;76.50;;;;;;4059806;29;19919;-81
2023/07/04 05:08:05;;;;;;;;;;;12.70;76.80;;;;;;4057979;29;20388;-80
2023/07/04 05:10:06;;;;;;;;;;;12.60;77.10;;;;;;4063247;29;19918;-80
2023/07/04 05:12:06;;;;;;;;;;;12.60;77.90;;;;;;4064509;29;19919;-81
2023/07/04 05:14:08;;;;;;;;;;;12.60;77.30;;;;;;4059191;29;19915;-80
2023/07/04 05:16:12;;;;;;;;;;;12.80;77.40;;;;;;4057438;29;20426;-83
2023/07/04 05:18:16;;;;;;;;;;;12.80;77.20;;;;;;4043566;29;20935;-80
2023/07/04 05:20:23;;;;;;;;;;;12.80;77.30;;;;;;4063590;29;19915;-82
2023/07/04 05:22:35;;;;;;;;;;;12.90;77.40;;;;;;4046033;29;20519;-81
2023/07/04 05:25:17;;;;;;;;;;;12.90;77.70;;;;;;4059092;29;19915;-81
2023/07/04 05:27:26;;;;;;;;;;;12.90;76.90;;;;;;4047075;29;20365;-81
2023/07/04 05:29:58;;;;;;;;;;;13.00;76.90;;;;;;4046077;29;20403;-80
2023/07/04 05:32:12;;;;;;;;;;;13.10;76.80;;;;;;4060219;29;20024;-80
2023/07/04 05:34:13;;;;;;;;;;;13.10;76.80;;;;;;4060915;29;20002;-80
2023/07/04 05:36:15;;;;;;;;;;;13.30;76.90;;;;;;4044645;29;19987;-82
2023/07/04 05:38:21;;;;;;;;;;;13.40;77.20;;;;;;4059168;29;20495;-83
2023/07/04 05:40:21;;;;;;;;;;;13.40;77.40;;;;;;4044409;29;20129;-81
2023/07/04 05:42:23;;;;;;;;;;;13.50;77.20;;;;;;4047066;29;20052;-82
2023/07/04 05:44:24;;;;;;;;;;;13.60;76.90;;;;;;4062743;29;19923;-82
2023/07/04 05:46:25;;;;;;;;;;;13.70;76.90;;;;;;4048944;29;19920;-80
2023/07/04 05:48:26;;;;;;;;;;;13.80;76.60;;;;;;4062306;29;19912;-80
2023/07/04 05:50:26;;;;;;;;;;;13.90;76.30;;;;;;4061022;29;19938;-82
2023/07/04 05:52:27;;;;;;;;;;;13.90;76.00;;;;;;4058397;29;19922;-80
2023/07/04 05:54:28;;;;;;;;;;;14.00;75.40;;;;;;4045228;29;20389;-81
2023/07/04 05:56:30;;;;;;;;;;;14.10;74.20;;;;;;4046065;29;20277;-83
2023/07/04 05:58:30;;;;;;;;;;;14.10;73.50;;;;;;4032183;29;19920;-82
2023/07/04 06:00:31;;;;;;;;;;;14.10;72.40;;;;;;4046346;29;20429;-83
2023/07/04 06:02:33;;;;;;;;;;;14.10;71.70;;;;;;4056936;29;19929;-83
2023/07/04 06:04:33;;;;;;;;;;;14.00;71.30;;;;;;4049017;29;19922;-82
2023/07/04 06:06:36;;;;;;;;;;;14.00;71.00;;;;;;4032138;29;19975;-81
2023/07/04 06:08:37;;;;;;;;;;;14.00;70.90;;;;;;4062136;29;19927;-83
2023/07/04 06:10:37;;;;;;;;;;;14.00;70.80;;;;;;4050122;29;19912;-83
2023/07/04 06:12:41;;;;;;;;;;;13.90;70.70;;;;;;4047180;29;19911;-82
2023/07/04 06:14:42;;;;;;;;;;;13.90;70.70;;;;;;4050517;29;19912;-83
2023/07/04 06:16:45;;;;;;;;;;;13.80;70.80;;;;;;4046872;29;19947;-81
2023/07/04 06:18:49;;;;;;;;;;;13.80;71.20;;;;;;4057839;29;20223;-81
2023/07/04 06:20:50;;;;;;;;;;;13.90;71.80;;;;;;4049655;29;19924;-82
2023/07/04 06:22:50;;;;;;;;;;;13.90;72.10;;;;;;4035953;29;19981;-83
2023/07/04 06:24:51;;;;;;;;;;;13.90;72.10;;;;;;4029016;29;20289;-82
2023/07/04 06:26:52;;;;;;;;;;;13.90;72.40;;;;;;4060658;29;19930;-81
2023/07/04 06:28:53;;;;;;;;;;;14.00;72.40;;;;;;4059522;29;19990;-83
2023/07/04 06:30:53;;;;;;;;;;;14.00;72.70;;;;;;4062206;29;20303;-82
2023/07/04 06:32:54;;;;;;;;;;;14.10;72.80;;;;;;4031567;29;20284;-82
2023/07/04 06:34:54;;;;;;;;;;;14.10;72.80;;;;;;4060703;29;19979;-82
2023/07/04 06:37:01;;;;;;;;;;;14.20;72.90;;;;;;4046533;29;20069;-79
2023/07/04 06:39:02;;;;;;;;;;;14.20;73.20;;;;;;4041914;29;19912;-81
2023/07/04 06:41:04;;;;;;;;;;;14.30;73.30;;;;;;4030853;29;19924;-81
2023/07/04 06:43:08;;;;;;;;;;;14.40;73.20;;;;;;4039805;29;19930;-82
2023/07/04 06:45:09;;;;;;;;;;;14.50;73.30;;;;;;4029845;29;19915;-81
2023/07/04 06:47:09;;;;;;;;;;;14.50;73.50;;;;;;4041433;29;19991;-83
2023/07/04 06:49:10;;;;;;;;;;;14.60;73.40;;;;;;4042393;29;20069;-80
2023/07/04 06:51:16;;;;;;;;;;;14.70;73.70;;;;;;4040486;29;19915;-81
2023/07/04 06:53:17;;;;;;;;;;;14.80;73.60;;;;;;4045425;29;19924;-80
2023/07/04 06:55:18;;;;;;;;;;;14.90;73.50;;;;;;4045774;29;19926;-84
2023/07/04 06:57:19;;;;;;;;;;;15.00;73.50;;;;;;4027586;29;19930;-81
2023/07/04 06:59:20;;;;;;;;;;;15.00;73.50;;;;;;4042602;29;19967;-80
2023/07/04 07:01:28;;;;;;;;;;;15.10;73.50;;;;;;4042680;29;19915;-82
2023/07/04 07:03:29;;;;;;;;;;;15.20;73.60;;;;;;4040217;29;19916;-82
2023/07/04 07:05:30;;;;;;;;;;;15.30;73.40;;;;;;4060936;29;19912;-82
2023/07/04 07:07:36;;;;;;;;;;;15.40;73.10;;;;;;4059891;29;20299;-82
2023/07/04 07:09:40;;;;;;;;;;;15.50;73.00;;;;;;4044585;29;19938;-80
2023/07/04 07:12:04;;;;;;;;;;;15.50;72.90;;;;;;4058952;29;19915;-81
2023/07/04 07:14:26;;;;;;;;;;;15.70;72.60;;;;;;4045604;29;19919;-81
2023/07/04 07:16:47;;;;;;;;;;;15.80;72.50;;;;;;4058645;29;20022;-82
2023/07/04 07:19:08;;;;;;;;;;;15.90;72.40;;;;;;4059598;29;19919;-82
2023/07/04 07:21:28;;;;;;;;;;;16.00;72.30;;;;;;4049184;29;19919;-80
2023/07/04 07:23:49;;;;;;;;;;;16.10;72.20;;;;;;4047080;29;19923;-82
2023/07/04 07:26:11;;;;;;;;;;;16.20;71.80;;;;;;4061260;29;19929;-83
2023/07/04 07:28:38;;;;;;;;;;;16.40;70.80;;;;;;4060483;29;19907;-82
2023/07/04 07:31:06;;;;;;;;;;;16.40;69.50;;;;;;4049579;29;19920;-81
2023/07/04 07:33:27;;;;;;;;;;;16.40;66.10;;;;;;4046513;29;19915;-82
2023/07/04 07:35:49;;;;;;;;;;;16.60;64.60;;;;;;4047052;29;19924;-82
2023/07/04 07:38:10;;;;;;;;;;;16.60;63.20;;;;;;4048229;29;19923;-82
2023/07/04 07:40:30;;;;;;;;;;;16.70;62.20;;;;;;4049729;29;19955;-84
2023/07/04 07:42:51;;;;;;;;;;;16.70;61.20;;;;;;4048080;29;19948;-83
2023/07/04 07:44:51;;;;;;;;;;;16.80;61.00;;;;;;4062217;29;19911;-82
2023/07/04 07:46:52;;;;;;;;;;;16.90;59.70;;;;;;4063161;29;19999;-81
2023/07/04 07:48:53;;;;;;;;;;;16.80;59.00;;;;;;4048386;29;20305;-82
2023/07/04 07:50:53;;;;;;;;;;;16.90;60.40;;;;;;4046993;29;20032;-82
2023/07/04 07:52:54;;;;;;;;;;;17.00;59.80;;;;;;4064445;29;19930;-83
2023/07/04 07:54:57;;;;;;;;;;;17.00;60.60;;;;;;4049256;29;19924;-82
2023/07/04 07:56:58;;;;;;;;;;;17.10;59.20;;;;;;4041700;29;19922;-82
2023/07/04 07:58:58;;;;;;;;;;;17.10;58.60;;;;;;4056763;29;19915;-82
2023/07/04 08:00:59;;;;;;;;;;;17.10;58.80;;;;;;4062381;29;20322;-81
2023/07/04 08:03:00;;;;;;;;;;;17.20;58.70;;;;;;4064007;29;20002;-82
2023/07/04 08:05:01;;;;;;;;;;;17.20;58.40;;;;;;4051588;29;19922;-83
2023/07/04 08:07:02;;;;;;;;;;;17.30;58.70;;;;;;4067859;29;19919;-85
2023/07/04 08:09:03;;;;;;;;;;;17.30;57.00;;;;;;4032977;29;20068;-83
2023/07/04 08:11:04;;;;;;;;;;;17.40;57.80;;;;;;4064019;29;19919;-83
2023/07/04 08:13:05;;;;;;;;;;;17.40;57.30;;;;;;4048299;29;20342;-82
2023/07/04 08:15:06;;;;;;;;;;;17.50;57.30;;;;;;4046059;29;19911;-83
2023/07/04 08:17:07;;;;;;;;;;;17.50;57.60;;;;;;4065784;29;19999;-82
2023/07/04 08:19:07;;;;;;;;;;;17.60;57.20;;;;;;4050227;29;19991;-82
2023/07/04 08:21:08;;;;;;;;;;;17.60;57.00;;;;;;4063248;29;19911;-82
2023/07/04 08:23:11;;;;;;;;;;;17.60;55.00;;;;;;4067085;29;19973;-84
2023/07/04 08:25:20;;;;;;;;;;;17.70;55.40;;;;;;4063704;29;19974;-82
2023/07/04 08:27:24;;;;;;;;;;;17.70;54.70;;;;;;4045423;29;19916;-81
2023/07/04 08:29:25;;;;;;;;;;;17.80;53.20;;;;;;4051650;29;19964;-83
2023/07/04 08:31:38;;;;;;;;;;;17.80;54.90;;;;;;4035848;29;19920;-84
2023/07/04 08:33:57;;;;;;;;;;;17.90;55.10;;;;;;4047555;29;19971;-82
2023/07/04 08:36:25;;;;;;;;;;;17.90;54.60;;;;;;4045182;29;19912;-82
2023/07/04 08:39:04;;;;;;;;;;;18.00;55.10;;;;;;4044187;29;19924;-81
2023/07/04 08:41:27;;;;;;;;;;;18.10;54.80;;;;;;4047300;29;19928;-83
2023/07/04 08:43:28;;;;;;;;;;;18.20;55.10;;;;;;4026579;29;20879;-83
2023/07/04 08:45:29;;;;;;;;;;;18.20;54.10;;;;;;4047222;29;19943;-81
2023/07/04 08:47:31;;;;;;;;;;;18.30;53.80;;;;;;4032199;29;19912;-82
2023/07/04 08:49:34;;;;;;;;;;;18.40;52.90;;;;;;4031588;29;19915;-82
2023/07/04 08:51:43;;;;;;;;;;;18.50;54.40;;;;;;4033049;29;19928;-81
2023/07/04 08:53:48;;;;;;;;;;;18.50;53.40;;;;;;4035717;29;19963;-83
2023/07/04 08:56:07;;;;;;;;;;;18.50;52.40;;;;;;4051294;29;19927;-82
2023/07/04 08:58:09;;;;;;;;;;;18.60;53.00;;;;;;4032768;29;21306;-82
2023/07/04 09:00:14;;;;;;;;;;;18.60;53.00;;;;;;4050174;29;19919;-82
2023/07/04 09:02:36;;;;;;;;;;;18.70;52.40;;;;;;4047000;29;19925;-83
2023/07/04 09:04:37;;;;;;;;;;;18.80;53.00;;;;;;4014859;29;19973;-81
2023/07/04 09:06:43;;;;;;;;;;;18.80;52.60;;;;;;4030793;29;19963;-83
2023/07/04 09:08:55;;;;;;;;;;;18.90;51.60;;;;;;4037654;29;19931;-81
2023/07/04 09:11:01;;;;;;;;;;;18.90;52.10;;;;;;4034446;29;19920;-83
2023/07/04 09:13:02;;;;;;;;;;;18.90;51.80;;;;;;4021276;29;19924;-83
2023/07/04 09:15:16;;;;;;;;;;;19.00;52.20;;;;;;4035748;29;19963;-84
2023/07/04 09:17:28;;;;;;;;;;;18.90;51.40;;;;;;4032038;29;20448;-82
2023/07/04 09:19:36;;;;;;;;;;;19.00;51.10;;;;;;4046049;29;19979;-83
2023/07/04 09:21:42;;;;;;;;;;;19.00;50.80;;;;;;4045242;29;19926;-82
2023/07/04 09:23:44;;;;;;;;;;;19.00;51.20;;;;;;4049270;29;20021;-82
2023/07/04 09:25:53;;;;;;;;;;;19.00;51.60;;;;;;4034879;29;19962;-83
2023/07/04 09:27:53;;;;;;;;;;;18.90;51.80;;;;;;4016293;29;20027;-81
2023/07/04 09:29:55;;;;;;;;;;;18.90;52.10;;;;;;4041759;29;19911;-83
2023/07/04 09:31:57;;;;;;;;;;;18.80;52.40;;;;;;4065350;29;19926;-84
2023/07/04 09:34:02;;;;;;;;;;;18.80;53.10;;;;;;4030277;29;20030;-83
2023/07/04 09:36:03;;;;;;;;;;;18.90;53.60;;;;;;4047834;29;19923;-81
2023/07/04 09:38:03;;;;;;;;;;;18.80;53.50;;;;;;4059624;29;20015;-84
2023/07/04 09:40:07;;;;;;;;;;;18.80;52.40;;;;;;4031469;29;19958;-82
2023/07/04 09:42:16;;;;;;;;;;;18.80;52.50;;;;;;4062023;29;19918;-82
2023/07/04 09:44:21;;;;;;;;;;;18.90;52.50;;;;;;4060366;29;19923;-82
2023/07/04 09:46:28;;;;;;;;;;;18.90;52.00;;;;;;4049223;29;19920;-83
2023/07/04 09:48:29;;;;;;;;;;;18.90;51.00;;;;;;4067848;29;19919;-80
2023/07/04 09:50:53;;;;;;;;;;;19.00;51.50;;;;;;4052654;29;19970;-83
2023/07/04 09:53:15;;;;;;;;;;;19.10;51.70;;;;;;4004793;29;19916;-82
2023/07/04 09:55:27;;;;;;;;;;;19.10;51.50;;;;;;4003930;29;19909;-82
2023/07/04 09:57:39;;;;;;;;;;;19.10;50.40;;;;;;4000023;29;19950;-82
2023/07/04 09:59:43;;;;;;;;;;;19.20;50.10;;;;;;3971464;29;19917;-81
2023/07/04 10:01:56;;;;;;;;;;;19.20;50.50;;;;;;3988835;29;19985;-81
2023/07/04 10:04:08;;;;;;;;;;;19.10;49.40;;;;;;4000407;29;20415;-84
2023/07/04 10:06:12;;;;;;;;;;;19.10;50.00;;;;;;4001244;29;19917;-83
2023/07/04 10:08:15;;;;;;;;;;;19.10;50.00;;;;;;3988279;29;19928;-83
2023/07/04 10:10:17;;;;;;;;;;;19.10;49.90;;;;;;4001079;29;20445;-82
2023/07/04 10:12:23;;;;;;;;;;;19.10;50.20;;;;;;3967575;29;19931;-79
2023/07/04 10:14:37;;;;;;;;;;;19.00;50.20;;;;;;3984228;29;19931;-80
2023/07/04 10:16:57;;;;;;;;;;;19.10;50.60;;;;;;3985300;29;20496;-81
2023/07/04 10:19:05;;;;;;;;;;;19.00;50.10;;;;;;4008407;29;19920;-82
2023/07/04 10:21:25;;;;;;;;;;;19.00;49.10;;;;;;3966442;29;19937;-80
2023/07/04 10:23:27;;;;;;;;;;;18.90;49.60;;;;;;3984894;29;19925;-83
2023/07/04 10:25:30;;;;;;;;;;;18.90;49.90;;;;;;3999517;29;20186;-82
2023/07/04 10:27:34;;;;;;;;;;;18.80;50.30;;;;;;3984111;29;20305;-82
2023/07/04 10:29:40;;;;;;;;;;;18.70;50.90;;;;;;3998438;29;20094;-81
2023/07/04 10:31:41;;;;;;;;;;;18.70;51.00;;;;;;4045685;29;20725;-80
2023/07/04 10:33:46;;;;;;;;;;;18.70;51.40;;;;;;4045135;29;20002;-80
2023/07/04 10:35:47;;;;;;;;;;;18.70;51.40;;;;;;4043948;29;19919;-83
2023/07/04 10:37:51;;;;;;;;;;;18.60;51.40;;;;;;4043899;29;19955;-84
2023/07/04 10:39:56;;;;;;;;;;;18.60;51.40;;;;;;4043348;29;19927;-81
2023/07/04 10:42:21;;;;;;;;;;;18.60;51.50;;;;;;4060109;29;20352;-83
2023/07/04 10:44:30;;;;;;;;;;;18.50;51.50;;;;;;4034706;29;19923;-82
2023/07/04 10:46:39;;;;;;;;;;;18.40;52.10;;;;;;4047121;29;19923;-84
2023/07/04 10:49:04;;;;;;;;;;;18.40;52.70;;;;;;4060420;29;19911;-82
2023/07/04 10:51:08;;;;;;;;;;;18.50;53.40;;;;;;4059817;29;19926;-81
2023/07/04 10:53:10;;;;;;;;;;;18.40;52.90;;;;;;4034359;29;19942;-83
2023/07/04 10:55:40;;;;;;;;;;;18.50;53.60;;;;;;4058858;29;19998;-83
2023/07/04 10:57:44;;;;;;;;;;;18.60;54.10;;;;;;4062666;29;19915;-81
2023/07/04 11:00:07;;;;;;;;;;;18.70;53.80;;;;;;4058512;29;19923;-82
2023/07/04 11:02:36;;;;;;;;;;;18.80;52.40;;;;;;4058285;29;19923;-81
2023/07/04 11:05:06;;;;;;;;;;;18.80;49.30;;;;;;4043451;29;19951;-81
2023/07/04 11:07:28;;;;;;;;;;;19.00;50.00;;;;;;4059341;29;19916;-80
2023/07/04 11:09:52;;;;;;;;;;;19.00;49.80;;;;;;4062365;29;20069;-82
2023/07/04 11:12:15;;;;;;;;;;;19.00;49.40;;;;;;4046493;29;19916;-82
2023/07/04 11:14:24;;;;;;;;;;;19.10;49.60;;;;;;4048831;29;19911;-82
2023/07/04 11:16:27;;;;;;;;;;;19.10;50.20;;;;;;4062360;29;20320;-84
2023/07/04 11:18:30;;;;;;;;;;;19.10;49.80;;;;;;4057555;29;19922;-81
2023/07/04 11:20:40;;;;;;;;;;;19.10;50.00;;;;;;4058995;29;19951;-83
2023/07/04 11:22:50;;;;;;;;;;;19.10;50.60;;;;;;4062089;29;19922;-81
2023/07/04 11:24:52;;;;;;;;;;;19.10;50.40;;;;;;4058696;29;19915;-82
2023/07/04 11:27:00;;;;;;;;;;;19.20;49.30;;;;;;4058902;29;19918;-82
2023/07/04 11:29:07;;;;;;;;;;;19.20;49.50;;;;;;4043001;29;19926;-81
2023/07/04 11:31:30;;;;;;;;;;;19.20;49.60;;;;;;4060416;29;19915;-80
2023/07/04 11:33:37;;;;;;;;;;;19.30;48.50;;;;;;4045333;29;20308;-81
2023/07/04 11:35:38;;;;;;;;;;;19.40;48.60;;;;;;4045313;29;19912;-82
2023/07/04 11:37:41;;;;;;;;;;;19.50;48.80;;;;;;4048798;29;19908;-83
2023/07/04 11:39:41;;;;;;;;;;;19.60;49.20;;;;;;4037381;29;20481;-82
2023/07/04 11:41:42;;;;;;;;;;;19.60;48.40;;;;;;4048796;29;19916;-81
2023/07/04 11:43:45;;;;;;;;;;;19.70;48.20;;;;;;4043279;29;19924;-81
2023/07/04 11:45:45;;;;;;;;;;;19.70;47.80;;;;;;4041715;29;19923;-82
2023/07/04 11:47:46;;;;;;;;;;;19.70;47.90;;;;;;4047951;29;19916;-82
2023/07/04 11:49:54;;;;;;;;;;;19.70;46.80;;;;;;4048636;29;20242;-83
2023/07/04 11:52:16;;;;;;;;;;;19.70;47.40;;;;;;4050388;29;19924;-86
2023/07/04 11:54:23;;;;;;;;;;;19.70;47.70;;;;;;4044535;29;20002;-83
2023/07/04 11:56:26;;;;;;;;;;;19.70;46.30;;;;;;4047363;29;19958;-82
2023/07/04 11:58:32;;;;;;;;;;;19.60;46.20;;;;;;4049136;29;19915;-82
2023/07/04 12:00:39;;;;;;;;;;;19.60;45.70;;;;;;4050336;29;19954;-84
2023/07/04 12:02:42;;;;;;;;;;;19.60;45.60;;;;;;4048263;29;19919;-83
2023/07/04 12:04:42;;;;;;;;;;;19.60;46.60;;;;;;4064792;29;19945;-82
2023/07/04 12:06:56;;;;;;;;;;;19.60;45.90;;;;;;4065544;29;20006;-81
2023/07/04 12:09:00;;;;;;;;;;;19.60;45.70;;;;;;4034530;29;19943;-82
2023/07/04 12:11:05;;;;;;;;;;;19.60;45.10;;;;;;4062945;29;19920;-83
2023/07/04 12:13:07;;;;;;;;;;;19.60;45.20;;;;;;4036532;29;19920;-82
2023/07/04 12:15:24;;;;;;;;;;;19.50;45.00;;;;;;4065440;29;19911;-82
2023/07/04 12:17:25;;;;;;;;;;;19.50;45.30;;;;;;4049101;29;20461;-83
2023/07/04 12:19:25;;;;;;;;;;;19.50;45.50;;;;;;4049534;29;19912;-82
2023/07/04 12:21:27;;;;;;;;;;;19.40;45.80;;;;;;4033032;29;19952;-82
2023/07/04 12:23:27;;;;;;;;;;;19.40;46.20;;;;;;4033904;29;19927;-82
2023/07/04 12:25:35;;;;;;;;;;;19.40;45.80;;;;;;4032461;29;19912;-81